サンパウロ/グアルーリョス の空港の天気 - METARとTAF

グアルーリョス国際空港 (サンパウロ) ( SBGR / GRU ) - ブラジル サンパウロ州サンパウロ市
飛行場実況気象(Metar)
観測時間09/20 18:00 BRT (09/20 21:00 UTC)
風向・風速静穏 0m/s
視程10km以上
天気現象
なし
気温20℃
湿度94%
気圧1018hPa
METARSBGR 202100Z 00000KT CAVOK 20/19 Q1018
過去の天気等 Google飛行場航空写真 Wunderground天気予報

過去48時間のMETAR

飛行場予報(TAF)
発表時間: 9/20 13:22 BRT (9/20 16:22 UTC)
予報対象時間: 20日15時 BRT ~ 21日21時 BRT
風向・風速西北西 5m/s
視程10km以上
全天の4割程度の雲 雲底高度 1070m
20日16時 BRT から 確率 40% で
風向・風速南南東 5m/s
視程6000m
天気現象雷雨
全天の8割程度の雲 雲底高度 910m
少しの積乱雲 雲底高度 1220m
20日20時 BRT ~ 20日22時 BRT に徐々に
風向・風速東 3m/s
少しの雲 雲底高度 610m
21日5時 BRT から 確率 30% で
風向・風速南南西 4m/s
視程3000m
天気現象もや
全天の8割程度の雲 雲底高度 180m
21日8時 BRT ~ 21日10時 BRT に徐々に
風向・風速北北東 4m/s
全天の8割程度の雲 雲底高度 910m
21日13時 BRT から 確率 40% で
天気現象雷雨
全天の8割程度の雲 雲底高度 910m
少しの積乱雲 雲底高度 1220m
21日17時 BRT ~ 21日19時 BRT に徐々に
風向・風速南 4m/s
全天の8割程度の雲 雲底高度 430m
TAF SBGR 201622Z 2018/2124 30010KT 9999 SCT035 TN18/2109Z TX25/2118Z
PROB40 2019/2023 15010KT 6000 TSRA BKN030 FEW040CB
BECMG 2023/2101 09005KT FEW020
PROB30 2108/2110 20008KT 3000 BR BKN006
BECMG 2111/2113 02007KT BKN030
PROB40 2116/2120 TSRA BKN030 FEW040CB
BECMG 2120/2122 17008KT BKN014 RMK PGQ